Time;durP1;ratioP1;P1;durP2;ratioP2;P2;SDS_P1;SDS_P2;PMS_P1;PMS_P2;Temp;Humidity;BMP_temperature;BMP_pressure;BME280_temperature;BME280_humidity;BME280_pressure;Samples;Min_cycle;Max_cycle;Signal;HPM_P1;HPM_P2
2023/01/16 00:01:22;;;;;;;5.88;2.90;;;;;;;2.43;100.00;99446.63;5114078;28;20023;-81
2023/01/16 00:03:48;;;;;;;6.22;2.45;;;;;;;3.53;100.00;99609.97;5113838;28;20030;-81
2023/01/16 00:06:13;;;;;;;4.55;2.70;;;;;;;3.24;100.00;99560.47;5113907;28;20024;-82
2023/01/16 00:08:41;;;;;;;6.25;2.78;;;;;;;3.28;100.00;99553.50;5113819;28;20024;-80
2023/01/16 00:11:06;;;;;;;5.78;2.47;;;;;;;3.29;100.00;99553.41;5113834;28;20030;-81
2023/01/16 00:13:31;;;;;;;3.17;1.98;;;;;;;3.29;100.00;99550.88;5113871;28;20462;-91
2023/01/16 00:15:57;;;;;;;5.43;1.90;;;;;;;3.55;100.00;99602.25;5113393;28;20023;-83
2023/01/16 00:18:22;;;;;;;5.28;2.25;;;;;;;3.34;100.00;99571.88;5113887;28;20062;-91
2023/01/16 00:20:48;;;;;;;4.40;1.70;;;;;;;3.19;100.00;99551.44;5113633;28;20019;-89
2023/01/16 00:23:14;;;;;;;8.10;2.60;;;;;;;3.38;100.00;99588.66;5113675;28;20024;-91
2023/01/16 00:25:41;;;;;;;4.75;1.90;;;;;;;3.37;100.00;99581.09;5113548;28;20042;-90
2023/01/16 00:28:07;;;;;;;5.15;1.83;;;;;;;3.25;100.00;99563.88;5113478;28;20153;-91
2023/01/16 00:30:32;;;;;;;6.80;2.28;;;;;;;2.92;100.00;99510.34;5113403;28;20028;-89
2023/01/16 00:33:02;;;;;;;4.90;2.00;;;;;;;3.33;100.00;99577.84;5113552;28;20371;-91
2023/01/16 00:35:28;;;;;;;4.95;2.00;;;;;;;3.31;100.00;99571.19;5113611;28;20019;-88
2023/01/16 00:37:54;;;;;;;7.80;2.85;;;;;;;2.94;100.00;99537.41;5113489;28;20363;-91
2023/01/16 00:40:20;;;;;;;5.20;1.90;;;;;;;2.85;100.00;99530.25;5113409;28;20049;-90
2023/01/16 00:42:45;;;;;;;6.20;2.10;;;;;;;3.10;100.00;99576.53;5094779;28;20039;-82
2023/01/16 00:45:11;;;;;;;5.25;2.08;;;;;;;3.11;100.00;99575.63;5113290;28;20102;-83
2023/01/16 00:47:36;;;;;;;5.97;1.95;;;;;;;3.16;100.00;99566.00;5113699;28;20110;-91
2023/01/16 00:50:02;;;;;;;6.32;2.08;;;;;;;3.16;100.00;99568.56;5113340;28;20020;-91
2023/01/16 00:52:31;;;;;;;7.65;2.33;;;;;;;3.11;100.00;99564.59;5112996;28;20149;-84
2023/01/16 00:54:56;;;;;;;5.35;2.33;;;;;;;2.56;100.00;99485.91;5113188;28;20407;-91
2023/01/16 00:57:22;;;;;;;6.07;2.75;;;;;;;2.92;100.00;99543.50;5113248;28;20165;-79
2023/01/16 00:59:47;;;;;;;8.18;2.50;;;;;;;2.76;100.00;99520.56;5112360;28;20039;-79
2023/01/16 01:02:13;;;;;;;5.25;2.50;;;;;;;2.75;100.00;99529.06;5113276;28;20035;-88
2023/01/16 01:04:39;;;;;;;9.90;3.28;;;;;;;2.69;100.00;99539.59;5113301;28;20036;-81
2023/01/16 01:07:04;;;;;;;9.07;2.85;;;;;;;2.62;100.00;99538.25;5113583;28;20026;-82
2023/01/16 01:09:29;;;;;;;7.00;2.80;;;;;;;2.25;100.00;99468.78;5112947;28;20092;-80
2023/01/16 01:11:58;;;;;;;7.72;3.15;;;;;;;2.24;100.00;99479.88;5113094;28;20046;-80
2023/01/16 01:14:25;;;;;;;10.23;3.33;;;;;;;2.52;100.00;99515.78;5112927;28;20023;-84
2023/01/16 01:16:50;;;;;;;8.82;3.10;;;;;;;2.31;100.00;99496.50;5112680;28;20047;-77
2023/01/16 01:19:16;;;;;;;11.73;3.83;;;;;;;2.45;100.00;99526.34;5112932;28;20024;-81
2023/01/16 01:21:41;;;;;;;8.13;3.00;;;;;;;2.40;100.00;99511.31;5113131;28;20024;-81
2023/01/16 01:24:07;;;;;;;11.82;3.85;;;;;;;2.18;100.00;99485.28;5113014;28;20466;-81
2023/01/16 01:26:32;;;;;;;8.35;3.35;;;;;;;1.93;100.00;99443.19;5112708;28;20031;-81
2023/01/16 01:28:58;;;;;;;8.30;3.20;;;;;;;1.87;100.00;99429.94;5112776;28;20019;-83
2023/01/16 01:31:23;;;;;;;11.05;3.78;;;;;;;2.09;100.00;99468.75;5112998;28;20024;-87
2023/01/16 01:33:48;;;;;;;8.48;3.08;;;;;;;1.95;100.00;99449.03;5112973;28;20530;-81
2023/01/16 01:36:14;;;;;;;7.13;2.80;;;;;;;2.14;100.00;99482.03;5112935;28;20020;-82
2023/01/16 01:38:39;;;;;;;8.52;2.88;;;;;;;2.06;100.00;99468.03;5112798;28;20486;-80
2023/01/16 01:41:05;;;;;;;11.60;2.97;;;;;;;2.08;100.00;99473.91;5112701;28;20110;-80
2023/01/16 01:43:51;;;;;;;10.38;3.13;;;;;;;1.97;100.00;99451.53;5112637;28;20024;-80
2023/01/16 01:46:26;;;;;;;7.57;2.33;;;;;;;2.01;100.00;99455.56;5112745;28;20088;-79
2023/01/16 01:48:59;;;;;;;7.38;2.40;;;;;;;1.98;100.00;99450.63;5112496;28;20459;-80
2023/01/16 01:51:37;;;;;;;9.55;2.20;;;;;;;1.57;100.00;99389.03;5112679;28;20030;-80
2023/01/16 01:54:07;;;;;;;7.00;2.00;;;;;;;1.87;100.00;99440.97;5112662;28;20479;-81
2023/01/16 01:56:39;;;;;;;5.23;1.73;;;;;;;1.63;100.00;99393.81;5112236;28;20085;-80
2023/01/16 01:59:14;;;;;;;8.52;2.10;;;;;;;1.81;100.00;99432.81;5112777;28;20291;-80
2023/01/16 02:01:39;;;;;;;7.50;2.47;;;;;;;1.77;100.00;99426.22;5112518;28;20106;-81
2023/01/16 02:04:09;;;;;;;7.82;2.05;;;;;;;1.72;100.00;99414.56;5112577;28;20058;-82
2023/01/16 02:06:43;;;;;;;8.07;2.03;;;;;;;1.87;100.00;99414.69;5112403;28;20466;-81
2023/01/16 02:09:09;;;;;;;5.75;2.20;;;;;;;1.73;100.00;99380.56;5112404;28;20119;-80
2023/01/16 02:11:42;;;;;;;7.03;1.80;;;;;;;1.64;100.00;99365.75;5113314;28;20066;-80
2023/01/16 02:14:11;;;;;;;6.38;1.98;;;;;;;1.88;100.00;99391.72;5116129;28;20027;-82
2023/01/16 02:19:49;;;;;;;6.60;1.80;;;;;;;1.88;100.00;99385.81;5115994;28;20043;-81
2023/01/16 02:22:14;;;;;;;6.68;2.05;;;;;;;1.87;100.00;99387.53;5116159;28;20425;-80
2023/01/16 02:25:20;;;;;;;5.57;1.90;;;;;;;1.08;100.00;99249.88;5116009;28;20074;-81
2023/01/16 02:28:10;;;;;;;8.50;2.00;;;;;;;1.95;100.00;99374.38;5013242;28;20462;-80
2023/01/16 02:31:13;;;;;;;11.15;2.10;;;;;;;2.04;100.00;99365.47;5013204;28;20041;-80
2023/01/16 02:34:11;;;;;;;5.55;1.80;;;;;;;2.11;100.00;99349.81;5013403;28;20033;-80
2023/01/16 02:37:01;;;;;;;8.68;2.08;;;;;;;2.15;100.00;99350.44;5013171;28;20116;-82
2023/01/16 02:39:26;;;;;;;6.68;1.60;;;;;;;2.11;100.00;99333.69;5013506;28;20390;-79
2023/01/16 02:42:03;;;;;;;7.95;1.98;;;;;;;2.08;100.00;99323.69;5013002;28;20033;-79
2023/01/16 02:44:33;;;;;;;7.68;1.58;;;;;;;1.84;100.00;99282.50;5012950;28;20518;-81
2023/01/16 02:47:25;;;;;;;4.68;1.83;;;;;;;2.03;100.00;99312.91;5012985;28;20029;-80
2023/01/16 02:50:11;;;;;;;8.50;1.80;;;;;;;2.02;100.00;99299.34;5013020;28;20406;-80
2023/01/16 02:52:52;;;;;;;6.63;1.67;;;;;;;1.99;100.00;99289.34;4996353;28;20034;-79
2023/01/16 02:55:43;;;;;;;8.57;1.70;;;;;;;1.96;100.00;99274.22;5012766;28;20056;-81
2023/01/16 02:58:11;;;;;;;7.78;2.08;;;;;;;1.95;100.00;99270.03;5012526;28;20168;-80
2023/01/16 03:00:37;;;;;;;7.97;1.83;;;;;;;1.91;100.00;99259.19;4996429;28;20026;-79
2023/01/16 03:03:03;;;;;;;8.05;2.00;;;;;;;1.54;100.00;99208.56;5023740;28;20025;-81
2023/01/16 03:05:38;;;;;;;8.45;1.77;;;;;;;1.79;100.00;99241.19;5115282;28;20027;-81
2023/01/16 03:08:03;;;;;;;8.65;2.00;;;;;;;1.83;100.00;99240.13;5114888;28;20034;-84
2023/01/16 03:11:21;;;;;;;6.40;2.20;;;;;;;1.80;100.00;99236.03;5115071;28;20118;-80
2023/01/16 03:14:00;;;;;;;7.68;2.03;;;;;;;1.53;100.00;99194.22;5012429;28;20176;-81
2023/01/16 03:16:33;;;;;;;8.65;2.03;;;;;;;1.26;100.00;99143.84;5012234;28;20084;-84
2023/01/16 03:19:19;;;;;;;7.82;2.00;;;;;;;1.29;100.00;99140.34;5012395;28;20041;-79
2023/01/16 03:22:16;;;;;;;5.72;1.85;;;;;;;1.74;100.00;99208.34;5012034;28;20505;-80
2023/01/16 03:24:47;;;;;;;9.90;2.65;;;;;;;1.75;100.00;99192.16;5012432;28;20022;-81
2023/01/16 03:27:40;;;;;;;10.95;2.00;;;;;;;1.73;100.00;99191.44;5011869;28;20030;-81
2023/01/16 03:30:14;;;;;;;8.05;2.30;;;;;;;1.72;100.00;99194.88;5012181;28;20462;-82
2023/01/16 03:32:45;;;;;;;9.43;2.10;;;;;;;1.72;100.00;99175.34;5012287;28;20109;-81
2023/01/16 03:35:16;;;;;;;5.97;1.95;;;;;;;1.72;100.00;99177.91;5012169;28;20032;-80
2023/01/16 03:37:52;;;;;;;5.93;1.58;;;;;;;1.72;100.00;99175.34;5012074;28;20049;-80
2023/01/16 03:40:24;;;;;;;8.82;1.67;;;;;;;1.72;100.00;99169.44;5011978;28;20112;-81
2023/01/16 03:43:07;;;;;;;6.28;1.65;;;;;;;1.71;100.00;99157.63;5011788;28;20088;-80
2023/01/16 03:45:48;;;;;;;7.00;1.73;;;;;;;1.38;100.00;99100.00;5012049;28;20033;-81
2023/01/16 03:48:33;;;;;;;5.20;1.50;;;;;;;1.72;100.00;99147.34;5029774;28;20043;-92
2023/01/16 03:51:12;;;;;;;6.55;1.83;;;;;;;1.21;100.00;99048.41;5114744;28;20024;-91
2023/01/16 03:53:45;;;;;;;9.00;1.70;;;;;;;1.69;100.00;99111.09;5096291;28;20109;-89
2023/01/16 03:56:19;;;;;;;8.27;1.80;;;;;;;1.69;100.00;99111.09;5114333;28;20042;-92
2023/01/16 03:58:48;;;;;;;6.20;1.70;;;;;;;1.68;100.00;99101.81;5114373;28;20027;-90
2023/01/16 04:01:45;;;;;;;9.95;1.83;;;;;;;1.70;100.00;99100.00;5114524;28;20034;-92
2023/01/16 04:04:29;;;;;;;5.82;1.70;;;;;;;1.69;100.00;99083.91;5114609;28;20459;-91
2023/01/16 04:07:02;;;;;;;8.52;2.30;;;;;;;1.53;100.00;99059.38;5096341;28;20031;-92
2023/01/16 04:09:55;;;;;;;7.72;1.75;;;;;;;1.68;100.00;99073.84;5095749;28;20059;-90
2023/01/16 04:12:28;;;;;;;6.78;2.55;;;;;;;1.66;100.00;99058.63;5114131;28;20019;-92
2023/01/16 04:15:02;;;;;;;9.13;2.53;;;;;;;1.67;100.00;99049.25;5114043;28;20023;-90
2023/01/16 04:17:29;;;;;;;5.80;2.90;;;;;;;1.56;100.00;99026.13;5113912;28;20104;-91
2023/01/16 04:19:54;;;;;;;4.13;1.70;;;;;;;1.64;100.00;99044.34;5114309;28;20024;-91
2023/01/16 04:22:23;;;;;;;6.60;1.90;;;;;;;1.66;100.00;99038.28;5120189;28;20053;-85
2023/01/16 04:24:50;;;;;;;5.88;1.90;;;;;;;1.66;100.00;99029.81;5116952;28;20046;-91
2023/01/16 04:27:17;;;;;;;6.50;2.38;;;;;;;1.66;100.00;99015.38;5113675;28;20028;-91
2023/01/16 04:29:43;;;;;;;5.55;1.95;;;;;;;1.60;100.00;98994.56;5113779;28;20019;-91
2023/01/16 04:32:08;;;;;;;6.50;2.42;;;;;;;1.71;100.00;99002.41;5113670;28;20471;-92
2023/01/16 04:34:33;;;;;;;8.05;2.67;;;;;;;1.72;100.00;98989.59;5113153;28;20588;-84
2023/01/16 04:36:58;;;;;;;9.02;2.63;;;;;;;1.31;100.00;98910.53;5113482;28;20038;-92
2023/01/16 04:39:24;;;;;;;11.50;2.30;;;;;;;1.78;100.00;98968.09;5113656;28;20042;-84
2023/01/16 04:41:50;;;;;;;10.07;2.53;;;;;;;1.46;100.00;98895.28;5113457;28;20090;-81
2023/01/16 04:44:16;;;;;;;8.85;2.42;;;;;;;1.87;100.00;98949.75;5113241;28;20027;-90
2023/01/16 04:46:42;;;;;;;12.98;3.90;;;;;;;1.93;100.00;98939.19;5113332;28;20019;-83
2023/01/16 04:49:07;;;;;;;11.50;3.80;;;;;;;1.69;100.00;98882.91;5113327;28;20042;-80
2023/01/16 04:51:34;;;;;;;15.63;5.00;;;;;;;1.91;100.00;98897.75;5113132;28;20031;-82
2023/01/16 04:53:59;;;;;;;10.85;3.90;;;;;;;2.10;100.00;98917.88;5113374;28;20096;-80
2023/01/16 04:56:24;;;;;;;10.73;4.03;;;;;;;2.10;100.00;98897.50;5113216;28;20156;-81
2023/01/16 04:58:50;;;;;;;9.18;2.88;;;;;;;1.99;100.00;98864.22;5113178;28;20031;-81
2023/01/16 05:01:17;;;;;;;8.07;2.60;;;;;;;2.20;100.00;98877.41;5113196;28;20023;-82
2023/01/16 05:03:42;;;;;;;6.25;2.25;;;;;;;2.00;100.00;98840.41;5094783;28;20040;-81
2023/01/16 05:06:07;;;;;;;5.85;2.85;;;;;;;2.35;100.00;98878.19;5113041;28;20034;-81
2023/01/16 05:08:33;;;;;;;7.78;3.10;;;;;;;2.24;100.00;98841.47;5113337;28;20107;-89
2023/01/16 05:11:00;;;;;;;7.80;2.22;;;;;;;2.17;100.00;98819.84;5113432;28;20031;-80
2023/01/16 05:13:29;;;;;;;12.70;2.92;;;;;;;2.10;100.00;98782.94;5113101;28;20023;-81
2023/01/16 05:15:55;;;;;;;9.00;2.30;;;;;;;2.42;100.00;98819.16;5112783;28;20107;-80
2023/01/16 05:18:20;;;;;;;6.53;2.17;;;;;;;2.58;100.00;98824.13;5112775;28;20020;-82
2023/01/16 05:20:46;;;;;;;7.00;2.20;;;;;;;2.63;100.00;98816.19;5112979;28;20031;-81
2023/01/16 05:23:11;;;;;;;5.65;2.13;;;;;;;2.64;100.00;98807.63;5113025;28;20348;-81
2023/01/16 05:25:38;;;;;;;6.93;2.28;;;;;;;2.41;100.00;98758.94;5113252;28;20506;-85
2023/01/16 05:28:03;;;;;;;6.60;2.30;;;;;;;2.76;100.00;98797.50;5112825;28;20062;-82
2023/01/16 05:30:29;;;;;;;8.15;3.10;;;;;;;2.67;100.00;98769.22;5112858;28;20055;-80
2023/01/16 05:32:54;;;;;;;6.43;2.55;;;;;;;2.54;100.00;98736.84;5112650;28;20416;-80
2023/01/16 05:35:20;;;;;;;7.35;2.40;;;;;;;2.87;100.00;98772.13;5112615;28;20596;-82
2023/01/16 05:37:46;;;;;;;7.95;2.20;;;;;;;2.89;100.00;98761.84;5112805;28;20040;-81
2023/01/16 05:40:11;;;;;;;9.05;2.55;;;;;;;2.57;100.00;98690.81;5112716;28;20493;-80
2023/01/16 05:42:37;;;;;;;5.80;2.20;;;;;;;2.96;100.00;98740.13;5112665;28;20024;-80
2023/01/16 05:45:03;;;;;;;12.60;2.78;;;;;;;2.98;100.00;98723.00;5113119;28;20024;-80
2023/01/16 05:47:29;;;;;;;6.55;2.20;;;;;;;3.01;100.00;98719.41;5098515;28;20470;-81
2023/01/16 05:49:58;;;;;;;5.93;1.98;;;;;;;3.01;100.00;98704.94;5116763;28;20097;-81
2023/01/16 05:52:24;;;;;;;8.65;1.92;;;;;;;2.74;100.00;98660.84;5116583;28;20138;-80
2023/01/16 05:54:51;;;;;;;8.77;1.98;;;;;;;3.01;100.00;98689.63;5116609;28;20028;-81
2023/01/16 05:57:16;;;;;;;6.72;1.65;;;;;;;2.25;100.00;98562.97;5116452;28;20031;-79
2023/01/16 05:59:45;;;;;;;5.65;1.83;;;;;;;2.89;100.00;98659.88;5116487;28;20027;-80
2023/01/16 06:02:10;;;;;;;8.80;1.80;;;;;;;3.05;100.00;98674.97;5116331;28;20118;-80
2023/01/16 06:04:36;;;;;;;8.95;2.10;;;;;;;2.72;100.00;98609.19;5116558;28;20119;-81
2023/01/16 06:07:01;;;;;;;6.57;1.60;;;;;;;2.88;100.00;98628.47;5116463;28;20103;-81
2023/01/16 06:09:26;;;;;;;4.82;1.63;;;;;;;3.07;100.00;98652.72;5116198;28;20378;-81
2023/01/16 06:11:52;;;;;;;7.75;1.85;;;;;;;2.88;100.00;98618.25;5116366;28;20032;-81
2023/01/16 06:14:17;;;;;;;8.45;1.60;;;;;;;2.94;100.00;98617.03;5115899;28;20028;-80
2023/01/16 06:16:43;;;;;;;6.55;1.60;;;;;;;3.16;100.00;98647.03;5115818;28;20048;-79
2023/01/16 06:19:08;;;;;;;6.70;1.58;;;;;;;3.20;100.00;98647.63;5115756;28;20071;-80
2023/01/16 06:21:33;;;;;;;5.10;1.77;;;;;;;3.21;100.00;98651.78;5115962;28;20030;-81
2023/01/16 06:23:59;;;;;;;4.53;1.45;;;;;;;3.20;100.00;98640.78;5116262;28;20024;-81
2023/01/16 06:26:24;;;;;;;3.72;1.50;;;;;;;3.20;100.00;98629.75;5115259;28;20035;-81
2023/01/16 06:28:49;;;;;;;7.65;1.85;;;;;;;3.05;100.00;98603.59;5097393;28;20443;-81
2023/01/16 06:31:15;;;;;;;8.43;2.60;;;;;;;3.17;100.00;98623.97;5097365;28;20028;-82
2023/01/16 06:33:40;;;;;;;10.48;2.88;;;;;;;3.17;100.00;98618.03;5115744;28;20493;-83
2023/01/16 06:36:05;;;;;;;11.48;2.72;;;;;;;3.14;100.00;98610.59;5115565;28;20027;-82
2023/01/16 06:38:31;;;;;;;8.07;2.05;;;;;;;2.97;100.00;98577.78;5115961;28;20026;-81
2023/01/16 06:40:56;;;;;;;7.97;1.95;;;;;;;3.01;100.00;98581.75;5115765;28;20466;-82
2023/01/16 06:43:26;;;;;;;6.75;2.03;;;;;;;3.11;100.00;98586.13;5115375;28;20027;-83
2023/01/16 06:45:51;;;;;;;5.38;2.20;;;;;;;2.95;100.00;98561.75;5115471;28;20016;-80
2023/01/16 06:48:17;;;;;;;6.55;2.20;;;;;;;3.08;100.00;98581.22;5115435;28;20035;-80
2023/01/16 06:50:42;;;;;;;9.80;2.70;;;;;;;2.73;100.00;98514.78;5115331;28;20019;-82
2023/01/16 06:53:08;;;;;;;10.77;3.22;;;;;;;3.07;100.00;98561.75;5097304;28;20437;-79
2023/01/16 06:55:33;;;;;;;6.97;2.60;;;;;;;2.68;100.00;98476.06;5115340;28;20027;-79
2023/01/16 06:57:58;;;;;;;7.55;2.35;;;;;;;2.91;100.00;98506.81;5114298;28;20024;-81
2023/01/16 07:00:24;;;;;;;4.53;1.40;;;;;;;2.99;100.00;98502.81;5115124;28;20031;-80
2023/01/16 07:02:57;;;;;;;6.57;2.05;;;;;;;3.03;100.00;98503.41;5115310;28;20019;-79
2023/01/16 07:05:27;;;;;;;6.10;1.45;;;;;;;2.95;100.00;98477.63;5115101;28;20026;-80
2023/01/16 07:07:53;;;;;;;3.35;1.15;;;;;;;3.02;100.00;98473.75;5115096;28;20027;-81
2023/01/16 07:10:22;;;;;;;4.20;1.27;;;;;;;3.03;100.00;98465.97;5096371;28;20541;-81
2023/01/16 07:12:48;;;;;;;3.92;1.20;;;;;;;3.03;100.00;98458.34;5115092;28;20048;-81
2023/01/16 07:23:33;;;;;;;4.35;1.27;;;;;;;2.83;100.00;98388.34;5114890;28;20039;-82
2023/01/16 07:26:02;;;;;;;4.63;1.52;;;;;;;1.96;100.00;98239.06;5114835;28;20474;-81
2023/01/16 07:28:28;;;;;;;6.55;1.30;;;;;;;2.65;100.00;98332.78;5114469;28;20028;-81
2023/01/16 07:30:54;;;;;;;5.28;1.40;;;;;;;3.05;100.00;98399.63;5114662;28;20532;-82
2023/01/16 07:33:20;;;;;;;5.88;1.52;;;;;;;2.92;100.00;98373.34;5114691;28;20038;-81
2023/01/16 07:35:45;;;;;;;7.15;1.42;;;;;;;3.06;100.00;98388.50;5114593;28;20024;-81
2023/01/16 07:38:11;;;;;;;4.65;1.30;;;;;;;2.61;100.00;98309.25;5114419;28;20096;-82
2023/01/16 07:40:36;;;;;;;6.60;1.65;;;;;;;3.09;100.00;98370.41;5114333;28;20046;-81
2023/01/16 07:43:02;;;;;;;5.30;1.45;;;;;;;3.10;100.00;98370.28;5114540;28;20077;-86
2023/01/16 07:45:27;;;;;;;4.68;1.90;;;;;;;3.11;100.00;98364.28;5114215;28;20411;-87
2023/01/16 07:47:53;;;;;;;5.72;1.75;;;;;;;2.78;100.00;98301.22;5114537;28;20042;-86
2023/01/16 07:50:18;;;;;;;6.13;1.95;;;;;;;3.15;100.00;98349.59;5114195;28;20497;-89
2023/01/16 07:52:45;;;;;;;5.38;1.40;;;;;;;3.16;100.00;98346.91;5114056;28;20055;-89
2023/01/16 07:55:11;;;;;;;6.25;2.10;;;;;;;3.17;100.00;98343.44;5114286;28;20053;-86
2023/01/16 07:57:38;;;;;;;6.75;1.90;;;;;;;3.00;100.00;98318.34;5095221;28;20088;-85
2023/01/16 08:00:10;;;;;;;6.63;1.70;;;;;;;3.12;100.00;98332.75;5113772;28;20020;-83
2023/01/16 08:02:36;;;;;;;4.18;1.45;;;;;;;2.67;100.00;98245.13;5114365;28;20071;-87
2023/01/16 08:05:01;;;;;;;7.22;1.98;;;;;;;2.84;100.00;98267.63;5114656;28;20028;-83
2023/01/16 08:07:26;;;;;;;4.32;1.63;;;;;;;2.81;100.00;98257.69;5113796;28;20035;-84
2023/01/16 08:09:52;;;;;;;3.38;1.40;;;;;;;3.11;100.00;98303.06;5113995;28;20023;-87
2023/01/16 08:12:17;;;;;;;7.25;1.80;;;;;;;3.14;100.00;98284.19;5113945;28;20027;-88
2023/01/16 08:14:43;;;;;;;5.30;1.95;;;;;;;2.99;100.00;98254.72;5113689;28;20051;-86
2023/01/16 08:17:08;;;;;;;4.65;2.15;;;;;;;3.21;100.00;98282.00;5121793;27;20051;-83
2023/01/16 08:19:33;;;;;;;4.28;1.65;;;;;;;3.21;100.00;98272.63;5122094;27;20134;-81
2023/01/16 08:21:59;;;;;;;4.75;1.80;;;;;;;3.24;100.00;98262.19;5113745;28;20073;-75
2023/01/16 08:24:25;;;;;;;6.95;1.75;;;;;;;3.21;100.00;98236.09;5113681;28;20059;-78
2023/01/16 08:26:51;;;;;;;4.00;1.58;;;;;;;3.31;100.00;98250.59;5113574;28;20032;-78
2023/01/16 08:29:16;;;;;;;4.65;1.77;;;;;;;3.32;100.00;98236.94;5113419;28;20026;-77
2023/01/16 08:31:42;;;;;;;6.03;1.85;;;;;;;3.11;100.00;98196.00;5113341;28;20023;-81
2023/01/16 08:34:07;;;;;;;5.50;1.65;;;;;;;3.01;100.00;98184.84;5113688;28;20097;-78
2023/01/16 08:36:32;;;;;;;5.43;1.80;;;;;;;3.35;100.00;98207.84;5113462;28;20462;-80
2023/01/16 08:38:58;;;;;;;5.63;1.98;;;;;;;3.38;100.00;98212.72;5095190;28;20127;-78
2023/01/16 08:52:38;;;;;;;4.75;2.20;;;;;;;3.30;100.00;98171.66;5113552;28;20100;-78
2023/01/16 08:55:05;;;;;;;6.85;1.85;;;;;;;3.48;100.00;98200.88;5113286;28;20019;-76
2023/01/16 08:57:31;;;;;;;6.63;2.13;;;;;;;3.40;100.00;98188.69;5113177;28;20517;-77
2023/01/16 08:59:57;;;;;;;5.32;1.35;;;;;;;3.37;100.00;98165.19;5113119;28;20019;-79
2023/01/16 09:02:23;;;;;;;4.20;1.90;;;;;;;3.43;100.00;98173.16;5113063;28;20448;-82
2023/01/16 09:04:49;;;;;;;6.65;1.63;;;;;;;3.45;100.00;98171.31;5113238;28;20024;-80
2023/01/16 09:07:15;;;;;;;4.40;1.40;;;;;;;3.55;100.00;98184.19;5112972;28;20481;-77
2023/01/16 09:09:41;;;;;;;5.68;1.88;;;;;;;3.52;100.00;98174.19;5113238;28;20030;-78
2023/01/16 09:14:55;;;;;;;3.90;1.40;;;;;;;3.25;100.00;98112.56;5113449;28;20078;-82
2023/01/16 09:17:22;;;;;;;5.30;1.70;;;;;;;3.63;100.00;98168.28;5112526;28;20551;-80
2023/01/16 09:19:47;;;;;;;4.55;1.40;;;;;;;3.64;100.00;98172.47;5111965;28;20082;-78
2023/01/16 09:22:12;;;;;;;5.78;1.13;;;;;;;3.31;100.00;98112.88;5117468;28;20051;-81
2023/01/16 09:24:38;;;;;;;2.67;1.17;;;;;;;3.31;100.00;98105.22;5117768;28;20020;-80
2023/01/16 09:27:05;;;;;;;2.35;1.10;;;;;;;3.55;100.00;98161.22;5117166;28;20407;-79
2023/01/16 09:29:31;;;;;;;3.72;1.33;;;;;;;3.50;100.00;98162.50;5116974;28;20059;-83
2023/01/16 09:31:57;;;;;;;2.55;1.20;;;;;;;3.45;100.00;98162.84;5116535;28;20035;-79
2023/01/16 09:34:23;;;;;;;2.47;1.20;;;;;;;3.29;100.00;98131.78;5116810;28;20023;-83
2023/01/16 09:36:49;;;;;;;2.80;1.15;;;;;;;3.40;100.00;98154.72;5116790;28;20039;-82
2023/01/16 09:39:14;;;;;;;2.03;0.95;;;;;;;3.09;100.00;98097.59;5116909;28;20516;-82
2023/01/16 09:44:46;;;;;;;2.80;0.80;;;;;;;3.36;100.00;98141.41;5116927;28;20436;-82
2023/01/16 09:47:12;;;;;;;1.95;0.80;;;;;;;3.35;100.00;98150.00;5116474;28;20034;-83
2023/01/16 09:49:50;;;;;;;4.15;1.05;;;;;;;3.38;100.00;98146.38;5116624;28;20106;-84
2023/01/16 10:00:50;;;;;;;1.38;0.70;;;;;;;3.54;100.00;98126.44;5116670;28;20097;-82
2023/01/16 10:03:16;;;;;;;2.72;0.98;;;;;;;3.57;100.00;98121.09;5116293;28;20080;-80
2023/01/16 10:05:53;;;;;;;1.70;0.80;;;;;;;3.61;100.00;98117.34;5116360;28;20024;-78
2023/01/16 10:09:03;;;;;;;2.58;0.80;;;;;;;3.62;100.00;98107.97;5116395;28;20092;-78
2023/01/16 10:11:54;;;;;;;0.75;0.70;;;;;;;3.63;100.00;98095.06;5013761;28;20042;-80
2023/01/16 10:14:22;;;;;;;2.23;0.90;;;;;;;3.77;100.00;98111.88;5013533;28;20465;-79
2023/01/16 10:17:06;;;;;;;2.38;0.80;;;;;;;3.84;100.00;98100.25;5013380;28;20080;-79
2023/01/16 10:19:44;;;;;;;1.85;0.90;;;;;;;3.88;100.00;98098.28;5013527;28;20029;-79
2023/01/16 10:22:28;;;;;;;1.63;0.90;;;;;;;3.94;100.00;98083.28;5013608;28;20449;-78
2023/01/16 10:25:02;;;;;;;0.95;0.60;;;;;;;3.99;100.00;98078.59;5013492;28;20061;-78
2023/01/16 10:27:43;;;;;;;2.13;0.70;;;;;;;4.14;100.00;98079.13;5013387;28;20061;-81
2023/01/16 10:30:13;;;;;;;1.50;0.75;;;;;;;4.14;100.00;98048.50;5013348;28;20041;-79
2023/01/16 10:33:10;;;;;;;1.42;0.73;;;;;;;4.55;100.00;98069.84;5012087;28;20108;-83
2023/01/16 10:35:43;;;;;;;0.88;0.70;;;;;;;4.73;100.00;98040.22;4935757;29;20115;-81
2023/01/16 10:38:43;;;;;;;1.15;0.60;;;;;;;5.22;100.00;98058.28;4935668;29;20043;-82
2023/01/16 10:50:09;;;;;;;1.40;0.60;;;;;;;5.51;100.00;98030.19;5013123;28;20121;-82
2023/01/16 10:52:35;;;;;;;0.82;0.50;;;;;;;5.53;100.00;98028.31;5013336;28;20042;-81
2023/01/16 10:55:02;;;;;;;2.38;0.60;;;;;;;5.43;100.00;98024.00;5012854;28;20108;-83
2023/01/16 10:57:28;;;;;;;0.95;0.60;;;;;;;5.41;100.00;98013.09;4996620;28;20029;-80
2023/01/16 11:00:08;;;;;;;1.77;0.60;;;;;;;5.42;100.00;98006.22;5013119;28;20042;-89
2023/01/16 11:02:40;;;;;;;0.90;0.40;;;;;;;5.38;100.00;98008.22;5012831;28;20572;-80
2023/01/16 11:05:26;;;;;;;2.10;0.60;;;;;;;5.31;100.00;97994.34;5012710;28;20073;-85
2023/01/16 11:08:01;;;;;;;0.98;0.45;;;;;;;5.02;100.00;97957.69;5012781;28;20029;-79
2023/01/16 11:10:26;;;;;;;1.42;0.50;;;;;;;5.14;100.00;97974.53;5012694;28;20029;-83
2023/01/16 11:18:34;;;;;;;1.25;0.60;;;;;;;5.11;100.00;97974.75;5114603;28;20512;-78
2023/01/16 11:21:13;;;;;;;2.47;0.60;;;;;;;4.97;100.00;97945.28;5114930;28;20035;-77
2023/01/16 11:23:41;;;;;;;1.20;0.50;;;;;;;5.16;100.00;97952.16;5094882;28;20026;-79
2023/01/16 11:26:07;;;;;;;0.70;0.50;;;;;;;5.00;100.00;97916.06;5114957;28;20046;-75
2023/01/16 11:28:37;;;;;;;1.25;0.55;;;;;;;5.28;100.00;97943.41;5114874;28;20023;-79
2023/01/16 11:31:17;;;;;;;1.15;0.70;;;;;;;5.35;100.00;97944.50;5114811;28;20389;-80
2023/01/16 11:33:54;;;;;;;1.40;0.60;;;;;;;5.37;100.00;97934.13;5114625;28;20420;-84
2023/01/16 11:36:22;;;;;;;1.15;0.50;;;;;;;5.38;100.00;97928.88;5096335;28;20030;-81
2023/01/16 11:38:49;;;;;;;1.02;0.63;;;;;;;5.15;99.60;97884.06;5114488;28;20032;-82
2023/01/16 11:41:20;;;;;;;1.15;0.55;;;;;;;5.42;99.84;97926.88;5114614;28;20103;-84
2023/01/16 11:46:56;;;;;;;0.57;0.57;;;;;;;5.56;99.37;97907.72;5114640;28;20493;-82
2023/01/16 11:49:26;;;;;;;1.42;0.60;;;;;;;5.59;98.61;97889.53;5114632;28;20378;-84
2023/01/16 11:51:53;;;;;;;0.87;0.50;;;;;;;5.58;97.51;97859.75;5114425;28;20474;-84
2023/01/16 11:54:26;;;;;;;2.05;0.60;;;;;;;5.72;98.04;97878.06;5114454;28;20269;-89
2023/01/16 11:57:29;;;;;;;1.63;0.77;;;;;;;5.83;99.32;97889.91;5114227;28;20031;-85
2023/01/16 12:00:03;;;;;;;1.42;0.50;;;;;;;5.74;97.66;97857.44;5114304;28;20047;-80
2023/01/16 12:03:07;;;;;;;2.72;0.75;;;;;;;5.65;97.92;97827.56;5114277;28;20186;-81
2023/01/16 12:05:57;;;;;;;2.80;0.77;;;;;;;5.79;98.77;97846.78;5114038;28;20051;-88
2023/01/16 12:08:52;;;;;;;1.98;0.60;;;;;;;5.67;98.61;97835.91;5114089;28;20462;-85
2023/01/16 12:11:26;;;;;;;0.80;0.68;;;;;;;5.75;97.54;97867.53;5113883;28;20415;-89
2023/01/16 12:14:21;;;;;;;1.13;0.60;;;;;;;5.52;98.01;97825.31;5113950;28;20031;-82
2023/01/16 12:17:02;;;;;;;1.60;0.65;;;;;;;5.65;99.42;97853.16;5113871;28;20051;-81
2023/01/16 12:19:34;;;;;;;2.33;0.77;;;;;;;5.57;100.00;97845.34;5113425;28;20024;-86
2023/01/16 12:22:08;;;;;;;;;;;;;;;5.62;100.00;97843.19;5114099;28;20470;-85
2023/01/16 12:24:48;;;;;;;1.00;0.60;;;;;;;5.49;100.00;97825.56;5113699;28;20294;-82
2023/01/16 12:27:34;;;;;;;1.40;0.70;;;;;;;5.60;100.00;97835.63;5113951;28;20028;-91
2023/01/16 12:30:26;;;;;;;3.75;0.95;;;;;;;5.66;100.00;97824.84;5113510;28;20080;-92
2023/01/16 12:33:31;;;;;;;1.60;0.70;;;;;;;5.79;100.00;97819.41;5099194;28;20039;-84
2023/01/16 12:36:10;;;;;;;1.40;0.80;;;;;;;5.90;100.00;97810.75;5113291;28;20414;-87
2023/01/16 12:38:42;;;;;;;1.60;0.68;;;;;;;5.93;100.00;97816.44;5113617;28;20032;-90
2023/01/16 12:44:12;;;;;;;1.50;0.63;;;;;;;5.97;100.00;97804.97;5113594;28;20148;-82
2023/01/16 12:46:57;;;;;;;1.52;0.60;;;;;;;6.08;100.00;97798.03;5095182;28;20437;-85
2023/01/16 12:49:40;;;;;;;1.95;0.65;;;;;;;5.21;100.00;97640.50;5113176;28;20023;-89